sensor_id;sensor_type;location;lat;lon;timestamp;P1;durP1;ratioP1;P2;durP2;ratioP2
24277;SDS011;12394;42.692;23.314;2022-10-16T00:01:28;13.27;;;9.30;;
24277;SDS011;12394;42.692;23.314;2022-10-16T00:03:54;12.30;;;8.47;;
24277;SDS011;12394;42.692;23.314;2022-10-16T00:06:20;13.57;;;9.57;;
24277;SDS011;12394;42.692;23.314;2022-10-16T00:08:46;13.13;;;8.40;;
24277;SDS011;12394;42.692;23.314;2022-10-16T00:11:13;13.77;;;8.80;;
24277;SDS011;12394;42.692;23.314;2022-10-16T00:13:39;12.87;;;8.07;;
24277;SDS011;12394;42.692;23.314;2022-10-16T00:16:04;10.57;;;7.93;;
24277;SDS011;12394;42.692;23.314;2022-10-16T00:18:30;14.83;;;8.63;;
24277;SDS011;12394;42.692;23.314;2022-10-16T00:21:00;20.50;;;9.13;;
24277;SDS011;12394;42.692;23.314;2022-10-16T00:23:26;16.07;;;9.30;;
24277;SDS011;12394;42.692;23.314;2022-10-16T00:25:55;17.03;;;9.70;;
24277;SDS011;12394;42.692;23.314;2022-10-16T00:28:20;11.90;;;8.50;;
24277;SDS011;12394;42.692;23.314;2022-10-16T00:30:46;12.73;;;9.13;;
24277;SDS011;12394;42.692;23.314;2022-10-16T00:33:11;11.17;;;7.83;;
24277;SDS011;12394;42.692;23.314;2022-10-16T00:35:36;15.83;;;8.90;;
24277;SDS011;12394;42.692;23.314;2022-10-16T00:38:02;10.33;;;7.83;;
24277;SDS011;12394;42.692;23.314;2022-10-16T00:40:27;12.17;;;8.30;;
24277;SDS011;12394;42.692;23.314;2022-10-16T00:42:53;10.57;;;8.43;;
24277;SDS011;12394;42.692;23.314;2022-10-16T00:45:18;12.70;;;8.77;;
24277;SDS011;12394;42.692;23.314;2022-10-16T00:47:43;14.60;;;7.90;;
24277;SDS011;12394;42.692;23.314;2022-10-16T00:50:13;14.03;;;9.10;;
24277;SDS011;12394;42.692;23.314;2022-10-16T00:52:39;13.47;;;8.87;;
24277;SDS011;12394;42.692;23.314;2022-10-16T00:55:06;13.40;;;8.27;;
24277;SDS011;12394;42.692;23.314;2022-10-16T00:57:32;16.20;;;8.87;;
24277;SDS011;12394;42.692;23.314;2022-10-16T00:59:57;12.40;;;8.03;;
24277;SDS011;12394;42.692;23.314;2022-10-16T01:02:23;12.73;;;8.17;;
24277;SDS011;12394;42.692;23.314;2022-10-16T01:04:50;14.27;;;8.73;;
24277;SDS011;12394;42.692;23.314;2022-10-16T01:07:20;13.40;;;8.37;;
24277;SDS011;12394;42.692;23.314;2022-10-16T01:15:08;15.97;;;8.23;;
24277;SDS011;12394;42.692;23.314;2022-10-16T01:17:45;9.67;;;7.30;;
24277;SDS011;12394;42.692;23.314;2022-10-16T01:27:55;10.90;;;8.27;;
24277;SDS011;12394;42.692;23.314;2022-10-16T01:30:26;11.40;;;8.00;;
24277;SDS011;12394;42.692;23.314;2022-10-16T01:32:55;12.27;;;8.37;;
24277;SDS011;12394;42.692;23.314;2022-10-16T01:35:22;14.57;;;8.43;;
24277;SDS011;12394;42.692;23.314;2022-10-16T01:40:15;15.40;;;9.47;;
24277;SDS011;12394;42.692;23.314;2022-10-16T01:42:46;17.13;;;9.27;;
24277;SDS011;12394;42.692;23.314;2022-10-16T01:45:13;11.03;;;8.77;;
24277;SDS011;12394;42.692;23.314;2022-10-16T01:47:39;11.47;;;8.37;;
24277;SDS011;12394;42.692;23.314;2022-10-16T01:50:05;18.83;;;9.23;;
24277;SDS011;12394;42.692;23.314;2022-10-16T01:52:34;12.37;;;8.20;;
24277;SDS011;12394;42.692;23.314;2022-10-16T01:55:00;14.10;;;7.93;;
24277;SDS011;12394;42.692;23.314;2022-10-16T01:57:27;11.20;;;7.80;;
24277;SDS011;12394;42.692;23.314;2022-10-16T01:59:54;10.50;;;8.17;;
24277;SDS011;12394;42.692;23.314;2022-10-16T02:02:21;13.27;;;7.87;;
24277;SDS011;12394;42.692;23.314;2022-10-16T02:04:49;12.63;;;7.67;;
24277;SDS011;12394;42.692;23.314;2022-10-16T02:07:15;12.03;;;8.17;;
24277;SDS011;12394;42.692;23.314;2022-10-16T02:09:40;11.43;;;7.30;;
24277;SDS011;12394;42.692;23.314;2022-10-16T02:12:08;10.70;;;7.23;;
24277;SDS011;12394;42.692;23.314;2022-10-16T02:14:35;16.83;;;8.10;;
24277;SDS011;12394;42.692;23.314;2022-10-16T02:17:09;15.13;;;8.30;;
24277;SDS011;12394;42.692;23.314;2022-10-16T02:19:35;13.03;;;8.13;;
24277;SDS011;12394;42.692;23.314;2022-10-16T02:22:02;9.63;;;7.33;;
24277;SDS011;12394;42.692;23.314;2022-10-16T02:24:36;14.13;;;8.70;;
24277;SDS011;12394;42.692;23.314;2022-10-16T02:27:10;11.87;;;8.10;;
24277;SDS011;12394;42.692;23.314;2022-10-16T02:29:38;14.20;;;7.90;;
24277;SDS011;12394;42.692;23.314;2022-10-16T02:32:04;12.40;;;7.67;;
24277;SDS011;12394;42.692;23.314;2022-10-16T02:34:31;12.90;;;7.60;;
24277;SDS011;12394;42.692;23.314;2022-10-16T02:36:57;12.03;;;7.77;;
24277;SDS011;12394;42.692;23.314;2022-10-16T02:39:23;12.30;;;7.87;;
24277;SDS011;12394;42.692;23.314;2022-10-16T02:41:49;12.83;;;7.07;;
24277;SDS011;12394;42.692;23.314;2022-10-16T02:44:14;10.30;;;7.40;;
24277;SDS011;12394;42.692;23.314;2022-10-16T02:46:39;17.10;;;6.60;;
24277;SDS011;12394;42.692;23.314;2022-10-16T02:49:04;8.80;;;6.53;;
24277;SDS011;12394;42.692;23.314;2022-10-16T02:51:30;10.03;;;6.27;;
24277;SDS011;12394;42.692;23.314;2022-10-16T02:53:55;14.57;;;7.07;;
24277;SDS011;12394;42.692;23.314;2022-10-16T02:56:20;10.00;;;6.67;;
24277;SDS011;12394;42.692;23.314;2022-10-16T02:58:46;13.70;;;7.40;;
24277;SDS011;12394;42.692;23.314;2022-10-16T03:01:11;13.07;;;8.53;;
24277;SDS011;12394;42.692;23.314;2022-10-16T03:03:37;13.60;;;7.73;;
24277;SDS011;12394;42.692;23.314;2022-10-16T03:06:03;13.47;;;7.77;;
24277;SDS011;12394;42.692;23.314;2022-10-16T03:08:28;13.23;;;8.03;;
24277;SDS011;12394;42.692;23.314;2022-10-16T03:10:54;11.17;;;8.10;;
24277;SDS011;12394;42.692;23.314;2022-10-16T03:13:19;11.00;;;7.83;;
24277;SDS011;12394;42.692;23.314;2022-10-16T03:15:45;15.53;;;8.43;;
24277;SDS011;12394;42.692;23.314;2022-10-16T03:18:10;15.13;;;8.47;;
24277;SDS011;12394;42.692;23.314;2022-10-16T03:20:36;13.00;;;7.93;;
24277;SDS011;12394;42.692;23.314;2022-10-16T03:23:01;13.10;;;8.80;;
24277;SDS011;12394;42.692;23.314;2022-10-16T03:25:27;15.90;;;9.37;;
24277;SDS011;12394;42.692;23.314;2022-10-16T03:27:52;13.13;;;9.10;;
24277;SDS011;12394;42.692;23.314;2022-10-16T03:30:18;11.47;;;7.73;;
24277;SDS011;12394;42.692;23.314;2022-10-16T03:32:44;14.07;;;8.40;;
24277;SDS011;12394;42.692;23.314;2022-10-16T03:35:09;11.50;;;8.33;;
24277;SDS011;12394;42.692;23.314;2022-10-16T03:37:34;16.70;;;8.80;;
24277;SDS011;12394;42.692;23.314;2022-10-16T03:40:00;10.03;;;7.27;;
24277;SDS011;12394;42.692;23.314;2022-10-16T03:42:26;11.73;;;8.70;;
24277;SDS011;12394;42.692;23.314;2022-10-16T03:44:51;11.37;;;8.20;;
24277;SDS011;12394;42.692;23.314;2022-10-16T03:47:16;17.27;;;8.53;;
24277;SDS011;12394;42.692;23.314;2022-10-16T03:49:45;12.83;;;8.60;;
24277;SDS011;12394;42.692;23.314;2022-10-16T03:52:10;13.50;;;9.23;;
24277;SDS011;12394;42.692;23.314;2022-10-16T03:54:36;10.97;;;8.20;;
24277;SDS011;12394;42.692;23.314;2022-10-16T03:57:01;14.93;;;9.67;;
24277;SDS011;12394;42.692;23.314;2022-10-16T03:59:26;14.80;;;9.77;;
24277;SDS011;12394;42.692;23.314;2022-10-16T04:01:51;13.03;;;8.70;;
24277;SDS011;12394;42.692;23.314;2022-10-16T04:04:17;15.67;;;8.57;;
24277;SDS011;12394;42.692;23.314;2022-10-16T04:06:42;16.00;;;9.23;;
24277;SDS011;12394;42.692;23.314;2022-10-16T04:09:07;12.83;;;8.97;;
24277;SDS011;12394;42.692;23.314;2022-10-16T04:11:32;12.30;;;9.47;;
24277;SDS011;12394;42.692;23.314;2022-10-16T04:13:57;16.60;;;9.43;;
24277;SDS011;12394;42.692;23.314;2022-10-16T04:16:23;16.47;;;9.07;;
24277;SDS011;12394;42.692;23.314;2022-10-16T04:18:48;10.30;;;8.30;;
24277;SDS011;12394;42.692;23.314;2022-10-16T04:21:13;16.17;;;9.07;;
24277;SDS011;12394;42.692;23.314;2022-10-16T04:23:39;17.20;;;8.73;;
24277;SDS011;12394;42.692;23.314;2022-10-16T04:26:04;15.90;;;9.93;;
24277;SDS011;12394;42.692;23.314;2022-10-16T04:28:29;24.07;;;11.30;;
24277;SDS011;12394;42.692;23.314;2022-10-16T04:30:54;17.33;;;10.57;;
24277;SDS011;12394;42.692;23.314;2022-10-16T04:33:20;14.87;;;9.77;;
24277;SDS011;12394;42.692;23.314;2022-10-16T04:35:45;16.27;;;10.07;;
24277;SDS011;12394;42.692;23.314;2022-10-16T04:38:10;15.73;;;9.43;;
24277;SDS011;12394;42.692;23.314;2022-10-16T04:40:35;14.03;;;9.77;;
24277;SDS011;12394;42.692;23.314;2022-10-16T04:43:02;19.37;;;10.00;;
24277;SDS011;12394;42.692;23.314;2022-10-16T04:45:27;12.60;;;9.43;;
24277;SDS011;12394;42.692;23.314;2022-10-16T04:47:52;16.47;;;9.57;;
24277;SDS011;12394;42.692;23.314;2022-10-16T04:50:18;17.53;;;9.83;;
24277;SDS011;12394;42.692;23.314;2022-10-16T04:52:43;22.83;;;10.33;;
24277;SDS011;12394;42.692;23.314;2022-10-16T04:55:08;14.97;;;9.23;;
24277;SDS011;12394;42.692;23.314;2022-10-16T04:57:33;13.23;;;8.73;;
24277;SDS011;12394;42.692;23.314;2022-10-16T04:59:59;15.53;;;9.53;;
24277;SDS011;12394;42.692;23.314;2022-10-16T05:02:24;22.10;;;9.50;;
24277;SDS011;12394;42.692;23.314;2022-10-16T05:04:49;35.80;;;17.57;;
24277;SDS011;12394;42.692;23.314;2022-10-16T05:07:15;22.80;;;11.50;;
24277;SDS011;12394;42.692;23.314;2022-10-16T05:09:40;14.27;;;9.30;;
24277;SDS011;12394;42.692;23.314;2022-10-16T05:12:05;15.80;;;9.60;;
24277;SDS011;12394;42.692;23.314;2022-10-16T05:14:31;14.93;;;7.80;;
24277;SDS011;12394;42.692;23.314;2022-10-16T05:16:56;10.67;;;8.17;;
24277;SDS011;12394;42.692;23.314;2022-10-16T05:19:21;12.90;;;8.60;;
24277;SDS011;12394;42.692;23.314;2022-10-16T05:21:46;16.63;;;8.27;;
24277;SDS011;12394;42.692;23.314;2022-10-16T05:24:12;12.40;;;8.13;;
24277;SDS011;12394;42.692;23.314;2022-10-16T05:26:37;15.03;;;8.40;;
24277;SDS011;12394;42.692;23.314;2022-10-16T05:29:03;16.50;;;8.57;;
24277;SDS011;12394;42.692;23.314;2022-10-16T05:31:28;11.47;;;8.63;;
24277;SDS011;12394;42.692;23.314;2022-10-16T05:33:57;12.60;;;8.27;;
24277;SDS011;12394;42.692;23.314;2022-10-16T05:36:22;13.53;;;9.37;;
24277;SDS011;12394;42.692;23.314;2022-10-16T05:38:50;13.70;;;8.07;;
24277;SDS011;12394;42.692;23.314;2022-10-16T05:41:15;11.30;;;7.70;;
24277;SDS011;12394;42.692;23.314;2022-10-16T05:43:44;15.50;;;9.03;;
24277;SDS011;12394;42.692;23.314;2022-10-16T05:46:10;11.27;;;8.00;;
24277;SDS011;12394;42.692;23.314;2022-10-16T05:48:35;10.40;;;7.77;;
24277;SDS011;12394;42.692;23.314;2022-10-16T05:51:04;11.17;;;8.63;;
24277;SDS011;12394;42.692;23.314;2022-10-16T05:53:32;11.83;;;8.07;;
24277;SDS011;12394;42.692;23.314;2022-10-16T05:55:58;15.87;;;7.60;;
24277;SDS011;12394;42.692;23.314;2022-10-16T05:58:24;12.17;;;7.77;;
24277;SDS011;12394;42.692;23.314;2022-10-16T06:00:56;12.63;;;8.13;;
24277;SDS011;12394;42.692;23.314;2022-10-16T06:03:21;10.80;;;7.70;;
24277;SDS011;12394;42.692;23.314;2022-10-16T06:05:47;10.13;;;7.60;;
24277;SDS011;12394;42.692;23.314;2022-10-16T06:08:12;13.03;;;7.70;;
24277;SDS011;12394;42.692;23.314;2022-10-16T06:10:37;13.60;;;8.23;;
24277;SDS011;12394;42.692;23.314;2022-10-16T06:13:02;10.93;;;7.73;;
24277;SDS011;12394;42.692;23.314;2022-10-16T06:15:28;9.67;;;7.67;;
24277;SDS011;12394;42.692;23.314;2022-10-16T06:17:53;10.93;;;7.70;;
24277;SDS011;12394;42.692;23.314;2022-10-16T06:20:18;10.23;;;7.20;;
24277;SDS011;12394;42.692;23.314;2022-10-16T06:22:43;10.17;;;8.27;;
24277;SDS011;12394;42.692;23.314;2022-10-16T06:25:09;12.90;;;8.77;;
24277;SDS011;12394;42.692;23.314;2022-10-16T06:27:34;9.73;;;7.47;;
24277;SDS011;12394;42.692;23.314;2022-10-16T06:29:59;9.03;;;7.33;;
24277;SDS011;12394;42.692;23.314;2022-10-16T06:32:24;12.10;;;7.50;;
24277;SDS011;12394;42.692;23.314;2022-10-16T06:34:49;11.33;;;6.90;;
24277;SDS011;12394;42.692;23.314;2022-10-16T06:37:15;10.00;;;7.23;;
24277;SDS011;12394;42.692;23.314;2022-10-16T06:39:40;10.47;;;7.90;;
24277;SDS011;12394;42.692;23.314;2022-10-16T06:42:05;10.60;;;7.23;;
24277;SDS011;12394;42.692;23.314;2022-10-16T06:44:30;11.50;;;6.83;;
24277;SDS011;12394;42.692;23.314;2022-10-16T06:46:56;16.47;;;7.47;;
24277;SDS011;12394;42.692;23.314;2022-10-16T06:49:21;11.17;;;7.37;;
24277;SDS011;12394;42.692;23.314;2022-10-16T06:51:47;8.27;;;6.80;;
24277;SDS011;12394;42.692;23.314;2022-10-16T06:54:14;12.93;;;7.30;;
24277;SDS011;12394;42.692;23.314;2022-10-16T06:56:39;10.13;;;6.90;;
24277;SDS011;12394;42.692;23.314;2022-10-16T07:01:48;12.80;;;7.60;;
24277;SDS011;12394;42.692;23.314;2022-10-16T07:04:13;9.53;;;7.37;;
24277;SDS011;12394;42.692;23.314;2022-10-16T07:06:39;11.93;;;8.07;;
24277;SDS011;12394;42.692;23.314;2022-10-16T07:09:05;12.77;;;8.30;;
24277;SDS011;12394;42.692;23.314;2022-10-16T07:11:30;8.67;;;7.67;;
24277;SDS011;12394;42.692;23.314;2022-10-16T07:13:56;9.87;;;7.80;;
24277;SDS011;12394;42.692;23.314;2022-10-16T07:16:25;12.67;;;8.27;;
24277;SDS011;12394;42.692;23.314;2022-10-16T07:18:51;11.73;;;7.63;;
24277;SDS011;12394;42.692;23.314;2022-10-16T07:21:21;11.47;;;8.50;;
24277;SDS011;12394;42.692;23.314;2022-10-16T07:23:56;13.03;;;7.87;;
24277;SDS011;12394;42.692;23.314;2022-10-16T07:26:22;14.30;;;9.00;;
24277;SDS011;12394;42.692;23.314;2022-10-16T07:28:47;10.50;;;8.37;;
24277;SDS011;12394;42.692;23.314;2022-10-16T07:31:13;12.70;;;9.60;;
24277;SDS011;12394;42.692;23.314;2022-10-16T07:33:39;11.37;;;8.60;;
24277;SDS011;12394;42.692;23.314;2022-10-16T07:36:05;11.60;;;8.70;;
24277;SDS011;12394;42.692;23.314;2022-10-16T07:38:30;11.30;;;9.20;;
24277;SDS011;12394;42.692;23.314;2022-10-16T07:41:01;12.70;;;9.60;;
24277;SDS011;12394;42.692;23.314;2022-10-16T07:43:26;14.77;;;9.37;;
24277;SDS011;12394;42.692;23.314;2022-10-16T07:45:52;11.87;;;8.37;;
24277;SDS011;12394;42.692;23.314;2022-10-16T07:48:18;12.00;;;8.33;;
24277;SDS011;12394;42.692;23.314;2022-10-16T07:50:43;15.67;;;8.70;;
24277;SDS011;12394;42.692;23.314;2022-10-16T07:53:09;11.87;;;8.27;;
24277;SDS011;12394;42.692;23.314;2022-10-16T07:55:34;10.10;;;7.77;;
24277;SDS011;12394;42.692;23.314;2022-10-16T07:58:00;9.27;;;7.03;;
24277;SDS011;12394;42.692;23.314;2022-10-16T08:00:25;11.13;;;7.93;;
24277;SDS011;12394;42.692;23.314;2022-10-16T08:02:50;11.10;;;7.87;;
24277;SDS011;12394;42.692;23.314;2022-10-16T08:05:16;11.07;;;7.10;;
24277;SDS011;12394;42.692;23.314;2022-10-16T08:07:41;20.37;;;16.47;;
24277;SDS011;12394;42.692;23.314;2022-10-16T08:10:06;8.60;;;6.33;;
24277;SDS011;12394;42.692;23.314;2022-10-16T08:12:34;6.57;;;5.87;;
24277;SDS011;12394;42.692;23.314;2022-10-16T08:14:59;7.00;;;6.10;;
24277;SDS011;12394;42.692;23.314;2022-10-16T08:17:25;8.50;;;6.20;;
24277;SDS011;12394;42.692;23.314;2022-10-16T08:19:50;8.30;;;6.20;;
24277;SDS011;12394;42.692;23.314;2022-10-16T08:22:15;8.60;;;5.07;;
24277;SDS011;12394;42.692;23.314;2022-10-16T08:24:40;6.10;;;5.50;;
24277;SDS011;12394;42.692;23.314;2022-10-16T08:27:06;8.87;;;5.63;;
24277;SDS011;12394;42.692;23.314;2022-10-16T08:29:32;5.43;;;4.93;;
24277;SDS011;12394;42.692;23.314;2022-10-16T08:31:57;9.07;;;5.13;;
24277;SDS011;12394;42.692;23.314;2022-10-16T08:34:22;5.60;;;5.10;;
24277;SDS011;12394;42.692;23.314;2022-10-16T08:36:47;7.17;;;5.83;;
24277;SDS011;12394;42.692;23.314;2022-10-16T08:39:13;7.47;;;4.73;;
24277;SDS011;12394;42.692;23.314;2022-10-16T08:44:23;6.97;;;5.47;;
24277;SDS011;12394;42.692;23.314;2022-10-16T08:49:15;5.22;;;4.72;;
24277;SDS011;12394;42.692;23.314;2022-10-16T08:51:40;6.47;;;5.43;;
24277;SDS011;12394;42.692;23.314;2022-10-16T08:54:19;5.35;;;4.85;;
24277;SDS011;12394;42.692;23.314;2022-10-16T08:56:46;12.02;;;5.00;;
24277;SDS011;12394;42.692;23.314;2022-10-16T08:59:11;5.35;;;3.92;;
24277;SDS011;12394;42.692;23.314;2022-10-16T09:01:43;4.47;;;4.07;;
24277;SDS011;12394;42.692;23.314;2022-10-16T09:11:48;4.03;;;3.70;;
24277;SDS011;12394;42.692;23.314;2022-10-16T09:16:42;6.05;;;3.65;;
24277;SDS011;12394;42.692;23.314;2022-10-16T09:19:12;6.03;;;3.92;;
24277;SDS011;12394;42.692;23.314;2022-10-16T09:21:41;6.43;;;3.63;;
24277;SDS011;12394;42.692;23.314;2022-10-16T09:24:09;6.20;;;3.95;;
24277;SDS011;12394;42.692;23.314;2022-10-16T09:26:36;5.43;;;4.25;;
24277;SDS011;12394;42.692;23.314;2022-10-16T09:29:02;4.97;;;3.03;;
24277;SDS011;12394;42.692;23.314;2022-10-16T09:31:28;3.90;;;3.22;;
24277;SDS011;12394;42.692;23.314;2022-10-16T09:33:55;8.05;;;3.78;;
24277;SDS011;12394;42.692;23.314;2022-10-16T09:36:23;5.85;;;4.18;;
24277;SDS011;12394;42.692;23.314;2022-10-16T09:38:50;6.30;;;4.07;;
24277;SDS011;12394;42.692;23.314;2022-10-16T09:41:26;3.60;;;2.95;;
24277;SDS011;12394;42.692;23.314;2022-10-16T09:43:53;8.05;;;5.05;;
24277;SDS011;12394;42.692;23.314;2022-10-16T09:46:41;3.92;;;3.33;;
24277;SDS011;12394;42.692;23.314;2022-10-16T09:49:16;3.83;;;3.38;;
24277;SDS011;12394;42.692;23.314;2022-10-16T09:51:43;4.80;;;3.35;;
24277;SDS011;12394;42.692;23.314;2022-10-16T09:56:34;4.88;;;3.40;;
24277;SDS011;12394;42.692;23.314;2022-10-16T09:59:11;3.72;;;3.22;;
24277;SDS011;12394;42.692;23.314;2022-10-16T10:01:37;3.30;;;2.97;;
24277;SDS011;12394;42.692;23.314;2022-10-16T10:04:03;5.20;;;3.53;;
24277;SDS011;12394;42.692;23.314;2022-10-16T10:06:33;5.22;;;3.33;;
24277;SDS011;12394;42.692;23.314;2022-10-16T10:09:04;4.15;;;3.42;;
24277;SDS011;12394;42.692;23.314;2022-10-16T10:11:43;3.53;;;3.22;;
24277;SDS011;12394;42.692;23.314;2022-10-16T10:14:19;5.47;;;3.42;;
24277;SDS011;12394;42.692;23.314;2022-10-16T10:16:45;4.83;;;3.10;;
24277;SDS011;12394;42.692;23.314;2022-10-16T10:19:17;4.85;;;3.70;;
24277;SDS011;12394;42.692;23.314;2022-10-16T10:21:43;3.90;;;3.47;;
24277;SDS011;12394;42.692;23.314;2022-10-16T10:24:16;4.30;;;3.38;;
24277;SDS011;12394;42.692;23.314;2022-10-16T10:26:44;7.57;;;3.75;;
24277;SDS011;12394;42.692;23.314;2022-10-16T10:39:58;6.43;;;3.70;;
24277;SDS011;12394;42.692;23.314;2022-10-16T10:42:34;4.50;;;4.07;;
24277;SDS011;12394;42.692;23.314;2022-10-16T10:47:57;4.83;;;3.47;;
24277;SDS011;12394;42.692;23.314;2022-10-16T11:03:13;5.40;;;4.23;;
24277;SDS011;12394;42.692;23.314;2022-10-16T11:05:49;7.30;;;3.33;;
24277;SDS011;12394;42.692;23.314;2022-10-16T11:08:17;4.27;;;3.17;;
24277;SDS011;12394;42.692;23.314;2022-10-16T11:13:23;6.30;;;3.97;;
24277;SDS011;12394;42.692;23.314;2022-10-16T11:15:52;4.60;;;3.50;;
24277;SDS011;12394;42.692;23.314;2022-10-16T11:18:42;5.80;;;3.63;;
24277;SDS011;12394;42.692;23.314;2022-10-16T11:21:08;7.13;;;4.60;;
24277;SDS011;12394;42.692;23.314;2022-10-16T11:26:04;5.10;;;3.70;;
24277;SDS011;12394;42.692;23.314;2022-10-16T11:28:33;4.03;;;3.47;;
24277;SDS011;12394;42.692;23.314;2022-10-16T11:31:05;4.27;;;3.60;;
24277;SDS011;12394;42.692;23.314;2022-10-16T11:36:33;4.03;;;3.60;;
24277;SDS011;12394;42.692;23.314;2022-10-16T11:46:30;4.53;;;3.23;;
24277;SDS011;12394;42.692;23.314;2022-10-16T11:51:42;3.47;;;2.90;;
24277;SDS011;12394;42.692;23.314;2022-10-16T11:54:22;4.70;;;3.57;;
24277;SDS011;12394;42.692;23.314;2022-10-16T11:56:50;5.53;;;3.33;;
24277;SDS011;12394;42.692;23.314;2022-10-16T11:59:23;8.40;;;3.43;;
24277;SDS011;12394;42.692;23.314;2022-10-16T12:04:43;5.83;;;3.10;;
24277;SDS011;12394;42.692;23.314;2022-10-16T12:07:21;5.60;;;3.83;;
24277;SDS011;12394;42.692;23.314;2022-10-16T12:09:48;4.37;;;3.10;;
24277;SDS011;12394;42.692;23.314;2022-10-16T12:12:27;7.30;;;3.53;;
24277;SDS011;12394;42.692;23.314;2022-10-16T12:15:03;5.43;;;3.63;;
24277;SDS011;12394;42.692;23.314;2022-10-16T12:17:38;6.57;;;3.57;;
24277;SDS011;12394;42.692;23.314;2022-10-16T12:22:41;4.37;;;3.37;;
24277;SDS011;12394;42.692;23.314;2022-10-16T12:30:24;5.77;;;3.23;;
24277;SDS011;12394;42.692;23.314;2022-10-16T12:32:54;5.33;;;3.20;;
24277;SDS011;12394;42.692;23.314;2022-10-16T12:35:21;6.87;;;3.10;;
24277;SDS011;12394;42.692;23.314;2022-10-16T12:37:47;6.37;;;3.27;;
24277;SDS011;12394;42.692;23.314;2022-10-16T12:40:14;3.77;;;3.30;;
24277;SDS011;12394;42.692;23.314;2022-10-16T12:42:40;4.60;;;3.57;;
24277;SDS011;12394;42.692;23.314;2022-10-16T12:47:55;4.70;;;3.40;;
24277;SDS011;12394;42.692;23.314;2022-10-16T12:52:48;4.43;;;3.37;;
24277;SDS011;12394;42.692;23.314;2022-10-16T12:55:17;7.80;;;3.10;;
24277;SDS011;12394;42.692;23.314;2022-10-16T13:00:26;6.37;;;4.60;;
24277;SDS011;12394;42.692;23.314;2022-10-16T13:30:01;3.77;;;3.33;;
24277;SDS011;12394;42.692;23.314;2022-10-16T13:32:27;5.53;;;2.90;;
24277;SDS011;12394;42.692;23.314;2022-10-16T13:34:53;3.97;;;3.03;;
24277;SDS011;12394;42.692;23.314;2022-10-16T13:37:20;4.93;;;3.20;;
24277;SDS011;12394;42.692;23.314;2022-10-16T13:39:45;5.40;;;3.03;;
24277;SDS011;12394;42.692;23.314;2022-10-16T13:42:30;4.97;;;2.93;;
24277;SDS011;12394;42.692;23.314;2022-10-16T13:44:56;5.57;;;4.03;;
24277;SDS011;12394;42.692;23.314;2022-10-16T13:50:05;3.53;;;2.60;;
24277;SDS011;12394;42.692;23.314;2022-10-16T13:52:31;4.33;;;3.07;;
24277;SDS011;12394;42.692;23.314;2022-10-16T13:55:18;3.57;;;3.23;;
24277;SDS011;12394;42.692;23.314;2022-10-16T13:58:04;3.53;;;2.93;;
24277;SDS011;12394;42.692;23.314;2022-10-16T14:00:32;7.30;;;3.47;;
24277;SDS011;12394;42.692;23.314;2022-10-16T14:03:04;4.03;;;2.57;;
24277;SDS011;12394;42.692;23.314;2022-10-16T14:05:54;3.30;;;2.47;;
24277;SDS011;12394;42.692;23.314;2022-10-16T14:08:21;3.87;;;2.80;;
24277;SDS011;12394;42.692;23.314;2022-10-16T14:10:47;2.73;;;2.37;;
24277;SDS011;12394;42.692;23.314;2022-10-16T14:13:17;3.77;;;3.13;;
24277;SDS011;12394;42.692;23.314;2022-10-16T14:15:47;4.03;;;3.13;;
24277;SDS011;12394;42.692;23.314;2022-10-16T14:21:33;3.03;;;2.23;;
24277;SDS011;12394;42.692;23.314;2022-10-16T14:23:59;5.00;;;2.50;;
24277;SDS011;12394;42.692;23.314;2022-10-16T14:26:40;2.93;;;2.40;;
24277;SDS011;12394;42.692;23.314;2022-10-16T14:29:17;3.67;;;2.50;;
24277;SDS011;12394;42.692;23.314;2022-10-16T14:31:55;6.30;;;2.83;;
24277;SDS011;12394;42.692;23.314;2022-10-16T14:34:25;5.43;;;2.90;;
24277;SDS011;12394;42.692;23.314;2022-10-16T14:36:52;5.30;;;2.67;;
24277;SDS011;12394;42.692;23.314;2022-10-16T14:39:18;3.83;;;3.03;;
24277;SDS011;12394;42.692;23.314;2022-10-16T14:41:46;4.17;;;2.93;;
24277;SDS011;12394;42.692;23.314;2022-10-16T14:44:13;4.70;;;3.07;;
24277;SDS011;12394;42.692;23.314;2022-10-16T14:46:45;8.23;;;3.60;;
24277;SDS011;12394;42.692;23.314;2022-10-16T14:51:37;4.83;;;2.57;;
24277;SDS011;12394;42.692;23.314;2022-10-16T14:54:03;7.97;;;2.57;;
24277;SDS011;12394;42.692;23.314;2022-10-16T14:56:52;4.60;;;2.47;;
24277;SDS011;12394;42.692;23.314;2022-10-16T14:59:25;3.90;;;2.80;;
24277;SDS011;12394;42.692;23.314;2022-10-16T15:01:52;7.20;;;2.77;;
24277;SDS011;12394;42.692;23.314;2022-10-16T15:04:18;8.13;;;3.43;;
24277;SDS011;12394;42.692;23.314;2022-10-16T15:06:43;5.50;;;3.10;;
24277;SDS011;12394;42.692;23.314;2022-10-16T15:09:09;5.47;;;3.27;;
24277;SDS011;12394;42.692;23.314;2022-10-16T15:11:55;5.10;;;4.00;;
24277;SDS011;12394;42.692;23.314;2022-10-16T15:14:21;4.87;;;3.83;;
24277;SDS011;12394;42.692;23.314;2022-10-16T15:16:47;6.80;;;3.10;;
24277;SDS011;12394;42.692;23.314;2022-10-16T15:19:34;4.07;;;2.83;;
24277;SDS011;12394;42.692;23.314;2022-10-16T15:21:59;4.43;;;3.43;;
24277;SDS011;12394;42.692;23.314;2022-10-16T15:24:25;7.43;;;3.90;;
24277;SDS011;12394;42.692;23.314;2022-10-16T15:26:52;5.30;;;4.30;;
24277;SDS011;12394;42.692;23.314;2022-10-16T15:29:17;6.20;;;3.57;;
24277;SDS011;12394;42.692;23.314;2022-10-16T15:32:02;3.67;;;3.20;;
24277;SDS011;12394;42.692;23.314;2022-10-16T15:34:28;12.50;;;3.80;;
24277;SDS011;12394;42.692;23.314;2022-10-16T15:36:53;6.57;;;3.57;;
24277;SDS011;12394;42.692;23.314;2022-10-16T15:39:21;4.73;;;3.60;;
24277;SDS011;12394;42.692;23.314;2022-10-16T15:41:52;5.73;;;3.97;;
24277;SDS011;12394;42.692;23.314;2022-10-16T15:44:43;5.47;;;4.23;;
24277;SDS011;12394;42.692;23.314;2022-10-16T15:47:48;7.90;;;4.33;;
24277;SDS011;12394;42.692;23.314;2022-10-16T15:50:15;5.07;;;3.60;;
24277;SDS011;12394;42.692;23.314;2022-10-16T15:52:41;5.90;;;4.30;;
24277;SDS011;12394;42.692;23.314;2022-10-16T15:55:26;6.23;;;4.30;;
24277;SDS011;12394;42.692;23.314;2022-10-16T15:57:51;8.13;;;4.53;;
24277;SDS011;12394;42.692;23.314;2022-10-16T16:00:18;9.00;;;4.30;;
24277;SDS011;12394;42.692;23.314;2022-10-16T16:02:49;7.13;;;4.57;;
24277;SDS011;12394;42.692;23.314;2022-10-16T16:05:15;6.80;;;4.77;;
24277;SDS011;12394;42.692;23.314;2022-10-16T16:07:40;6.20;;;4.47;;
24277;SDS011;12394;42.692;23.314;2022-10-16T16:10:06;9.43;;;4.40;;
24277;SDS011;12394;42.692;23.314;2022-10-16T16:12:32;6.30;;;4.73;;
24277;SDS011;12394;42.692;23.314;2022-10-16T16:14:58;6.13;;;4.00;;
24277;SDS011;12394;42.692;23.314;2022-10-16T16:17:47;10.40;;;4.57;;
24277;SDS011;12394;42.692;23.314;2022-10-16T16:20:35;8.00;;;4.93;;
24277;SDS011;12394;42.692;23.314;2022-10-16T16:23:00;10.57;;;4.90;;
24277;SDS011;12394;42.692;23.314;2022-10-16T16:25:25;14.20;;;5.53;;
24277;SDS011;12394;42.692;23.314;2022-10-16T16:27:50;6.37;;;4.40;;
24277;SDS011;12394;42.692;23.314;2022-10-16T16:30:16;7.67;;;5.17;;
24277;SDS011;12394;42.692;23.314;2022-10-16T16:32:43;8.63;;;4.63;;
24277;SDS011;12394;42.692;23.314;2022-10-16T16:35:09;13.63;;;5.53;;
24277;SDS011;12394;42.692;23.314;2022-10-16T16:37:34;8.17;;;4.80;;
24277;SDS011;12394;42.692;23.314;2022-10-16T16:39:59;11.73;;;5.33;;
24277;SDS011;12394;42.692;23.314;2022-10-16T16:42:25;9.03;;;5.77;;
24277;SDS011;12394;42.692;23.314;2022-10-16T16:44:51;8.27;;;4.20;;
24277;SDS011;12394;42.692;23.314;2022-10-16T16:47:16;10.37;;;6.87;;